sensor_id;sensor_type;location;lat;lon;timestamp;pressure;altitude;pressure_sealevel;temperature;humidity
8416;BME280;4245;42.120;24.732;2023-04-28T00:01:14;99498.38;;;11.98;57.52
8416;BME280;4245;42.120;24.732;2023-04-28T00:03:41;99499.25;;;11.98;57.23
8416;BME280;4245;42.120;24.732;2023-04-28T00:06:08;99506.94;;;11.90;57.28
8416;BME280;4245;42.120;24.732;2023-04-28T00:08:35;99497.78;;;11.69;57.98
8416;BME280;4245;42.120;24.732;2023-04-28T00:11:02;99494.72;;;11.75;57.59
8416;BME280;4245;42.120;24.732;2023-04-28T00:13:30;99495.13;;;11.82;57.56
8416;BME280;4245;42.120;24.732;2023-04-28T00:15:57;99496.81;;;11.83;56.85
8416;BME280;4245;42.120;24.732;2023-04-28T00:18:24;99490.13;;;11.77;57.02
8416;BME280;4245;42.120;24.732;2023-04-28T00:20:51;99495.09;;;11.94;56.01
8416;BME280;4245;42.120;24.732;2023-04-28T00:23:18;99496.16;;;11.92;55.08
8416;BME280;4245;42.120;24.732;2023-04-28T00:25:50;99493.63;;;11.77;55.62
8416;BME280;4245;42.120;24.732;2023-04-28T00:28:16;99494.50;;;11.78;55.24
8416;BME280;4245;42.120;24.732;2023-04-28T00:30:44;99495.34;;;11.79;54.40
8416;BME280;4245;42.120;24.732;2023-04-28T00:33:11;99494.50;;;11.78;53.92
8416;BME280;4245;42.120;24.732;2023-04-28T00:35:38;99487.13;;;11.69;55.06
8416;BME280;4245;42.120;24.732;2023-04-28T00:38:06;99491.41;;;11.84;53.59
8416;BME280;4245;42.120;24.732;2023-04-28T00:40:32;99490.06;;;12.02;52.59
8416;BME280;4245;42.120;24.732;2023-04-28T00:42:59;99488.00;;;12.06;52.36
8416;BME280;4245;42.120;24.732;2023-04-28T00:45:26;99483.69;;;11.92;52.47
8416;BME280;4245;42.120;24.732;2023-04-28T00:47:54;99489.66;;;11.96;52.81
8416;BME280;4245;42.120;24.732;2023-04-28T00:50:22;99492.59;;;11.80;53.19
8416;BME280;4245;42.120;24.732;2023-04-28T00:52:50;99488.31;;;11.77;53.98
8416;BME280;4245;42.120;24.732;2023-04-28T00:55:17;99491.72;;;11.80;54.18
8416;BME280;4245;42.120;24.732;2023-04-28T00:57:45;99494.88;;;11.72;54.93
8416;BME280;4245;42.120;24.732;2023-04-28T01:00:12;99490.56;;;11.71;54.96
8416;BME280;4245;42.120;24.732;2023-04-28T01:02:40;99494.25;;;11.68;55.35
8416;BME280;4245;42.120;24.732;2023-04-28T01:05:09;99493.13;;;11.60;55.74
8416;BME280;4245;42.120;24.732;2023-04-28T01:07:36;99497.69;;;11.58;55.57
8416;BME280;4245;42.120;24.732;2023-04-28T01:10:04;99494.09;;;11.46;56.02
8416;BME280;4245;42.120;24.732;2023-04-28T01:12:31;99496.13;;;11.17;57.80
8416;BME280;4245;42.120;24.732;2023-04-28T01:14:58;99504.94;;;11.30;57.11
8416;BME280;4245;42.120;24.732;2023-04-28T01:17:25;99500.56;;;11.29;57.79
8416;BME280;4245;42.120;24.732;2023-04-28T01:19:52;99501.31;;;11.19;57.98
8416;BME280;4245;42.120;24.732;2023-04-28T01:22:21;99500.59;;;11.17;58.23
8416;BME280;4245;42.120;24.732;2023-04-28T01:24:49;99503.56;;;11.25;58.07
8416;BME280;4245;42.120;24.732;2023-04-28T01:27:15;99504.50;;;11.24;57.03
8416;BME280;4245;42.120;24.732;2023-04-28T01:29:42;99502.91;;;11.09;57.96
8416;BME280;4245;42.120;24.732;2023-04-28T01:32:09;99504.94;;;11.05;58.26
8416;BME280;4245;42.120;24.732;2023-04-28T01:34:36;99509.50;;;11.28;57.38
8416;BME280;4245;42.120;24.732;2023-04-28T01:37:03;99499.94;;;11.26;56.71
8416;BME280;4245;42.120;24.732;2023-04-28T01:39:29;99516.84;;;11.12;56.49
8416;BME280;4245;42.120;24.732;2023-04-28T01:41:57;99498.75;;;11.05;56.51
8416;BME280;4245;42.120;24.732;2023-04-28T01:44:24;99502.81;;;10.98;56.68
8416;BME280;4245;42.120;24.732;2023-04-28T01:46:51;99508.63;;;10.90;57.35
8416;BME280;4245;42.120;24.732;2023-04-28T01:49:18;99503.06;;;10.68;57.82
8416;BME280;4245;42.120;24.732;2023-04-28T01:51:45;99513.91;;;10.65;57.89
8416;BME280;4245;42.120;24.732;2023-04-28T01:54:12;99505.94;;;10.65;57.88
8416;BME280;4245;42.120;24.732;2023-04-28T01:56:38;99526.53;;;10.61;57.90
8416;BME280;4245;42.120;24.732;2023-04-28T01:59:07;99513.84;;;10.52;58.17
8416;BME280;4245;42.120;24.732;2023-04-28T02:01:33;99518.84;;;10.44;58.39
8416;BME280;4245;42.120;24.732;2023-04-28T02:04:00;99508.81;;;10.35;58.68
8416;BME280;4245;42.120;24.732;2023-04-28T02:06:27;99516.09;;;10.31;58.92
8416;BME280;4245;42.120;24.732;2023-04-28T02:08:54;99505.72;;;10.41;58.62
8416;BME280;4245;42.120;24.732;2023-04-28T02:11:20;99519.47;;;10.48;58.31
8416;BME280;4245;42.120;24.732;2023-04-28T02:13:47;99515.09;;;10.46;58.25
8416;BME280;4245;42.120;24.732;2023-04-28T02:16:16;99529.19;;;10.34;58.40
8416;BME280;4245;42.120;24.732;2023-04-28T02:18:43;99522.28;;;10.32;58.57
8416;BME280;4245;42.120;24.732;2023-04-28T02:21:10;99515.75;;;10.23;58.98
8416;BME280;4245;42.120;24.732;2023-04-28T02:23:37;99523.09;;;10.20;58.64
8416;BME280;4245;42.120;24.732;2023-04-28T02:26:04;99533.50;;;10.09;59.10
8416;BME280;4245;42.120;24.732;2023-04-28T02:28:31;99529.06;;;9.95;59.23
8416;BME280;4245;42.120;24.732;2023-04-28T02:31:08;99528.22;;;9.94;59.34
8416;BME280;4245;42.120;24.732;2023-04-28T02:33:37;99543.84;;;9.99;58.97
8416;BME280;4245;42.120;24.732;2023-04-28T02:36:05;99544.50;;;10.02;58.41
8416;BME280;4245;42.120;24.732;2023-04-28T02:38:32;99546.31;;;10.02;58.26
8416;BME280;4245;42.120;24.732;2023-04-28T02:40:59;99554.56;;;9.97;58.32
8416;BME280;4245;42.120;24.732;2023-04-28T02:43:26;99547.66;;;9.95;57.97
8416;BME280;4245;42.120;24.732;2023-04-28T02:45:53;99547.56;;;9.96;57.68
8416;BME280;4245;42.120;24.732;2023-04-28T02:48:20;99552.88;;;9.82;58.04
8416;BME280;4245;42.120;24.732;2023-04-28T02:50:49;99549.66;;;9.91;57.99
8416;BME280;4245;42.120;24.732;2023-04-28T02:53:17;99535.44;;;9.78;58.92
8416;BME280;4245;42.120;24.732;2023-04-28T02:55:44;99542.44;;;9.79;58.26
8416;BME280;4245;42.120;24.732;2023-04-28T02:58:11;99560.75;;;9.70;58.48
8416;BME280;4245;42.120;24.732;2023-04-28T03:00:38;99558.47;;;9.64;58.10
8416;BME280;4245;42.120;24.732;2023-04-28T03:03:05;99539.03;;;9.49;58.79
8416;BME280;4245;42.120;24.732;2023-04-28T03:05:32;99531.94;;;9.64;58.15
8416;BME280;4245;42.120;24.732;2023-04-28T03:08:00;99535.72;;;9.59;57.54
8416;BME280;4245;42.120;24.732;2023-04-28T03:10:27;99541.16;;;9.58;57.50
8416;BME280;4245;42.120;24.732;2023-04-28T03:12:54;99549.28;;;9.55;57.67
8416;BME280;4245;42.120;24.732;2023-04-28T03:15:20;99547.56;;;9.54;57.68
8416;BME280;4245;42.120;24.732;2023-04-28T03:17:47;99553.72;;;9.54;57.41
8416;BME280;4245;42.120;24.732;2023-04-28T03:20:14;99560.47;;;9.60;56.91
8416;BME280;4245;42.120;24.732;2023-04-28T03:22:41;99558.16;;;9.54;57.53
8416;BME280;4245;42.120;24.732;2023-04-28T03:25:09;99555.06;;;9.62;57.41
8416;BME280;4245;42.120;24.732;2023-04-28T03:27:36;99559.50;;;9.61;57.43
8416;BME280;4245;42.120;24.732;2023-04-28T03:30:03;99566.81;;;9.57;56.89
8416;BME280;4245;42.120;24.732;2023-04-28T03:32:30;99566.03;;;9.55;57.35
8416;BME280;4245;42.120;24.732;2023-04-28T03:34:57;99572.19;;;9.56;56.82
8416;BME280;4245;42.120;24.732;2023-04-28T03:37:24;99576.28;;;9.62;56.81
8416;BME280;4245;42.120;24.732;2023-04-28T03:39:50;99579.50;;;9.67;56.73
8416;BME280;4245;42.120;24.732;2023-04-28T03:42:18;99600.72;;;9.81;55.89
8416;BME280;4245;42.120;24.732;2023-04-28T03:44:46;99601.38;;;9.70;56.76
8416;BME280;4245;42.120;24.732;2023-04-28T03:47:13;99596.38;;;9.80;56.37
8416;BME280;4245;42.120;24.732;2023-04-28T03:49:39;99599.94;;;9.93;55.76
8416;BME280;4245;42.120;24.732;2023-04-28T03:52:06;99604.25;;;9.81;56.21
8416;BME280;4245;42.120;24.732;2023-04-28T03:54:33;99616.06;;;9.90;55.91
8416;BME280;4245;42.120;24.732;2023-04-28T03:57:00;99610.09;;;10.15;54.93
8416;BME280;4245;42.120;24.732;2023-04-28T03:59:28;99617.41;;;10.11;54.85
8416;BME280;4245;42.120;24.732;2023-04-28T04:01:55;99629.81;;;9.96;56.12
8416;BME280;4245;42.120;24.732;2023-04-28T04:04:21;99628.47;;;10.03;55.89
8416;BME280;4245;42.120;24.732;2023-04-28T04:06:48;99630.13;;;10.20;55.01
8416;BME280;4245;42.120;24.732;2023-04-28T04:09:15;99629.16;;;10.35;54.43
8416;BME280;4245;42.120;24.732;2023-04-28T04:11:42;99632.28;;;10.28;54.97
8416;BME280;4245;42.120;24.732;2023-04-28T04:14:09;99634.84;;;10.29;55.22
8416;BME280;4245;42.120;24.732;2023-04-28T04:16:37;99639.56;;;10.38;54.20
8416;BME280;4245;42.120;24.732;2023-04-28T04:19:04;99647.34;;;10.27;55.60
8416;BME280;4245;42.120;24.732;2023-04-28T04:21:31;99648.13;;;10.29;55.22
8416;BME280;4245;42.120;24.732;2023-04-28T04:23:57;99644.78;;;10.40;55.14
8416;BME280;4245;42.120;24.732;2023-04-28T04:26:24;99646.59;;;10.39;55.78
8416;BME280;4245;42.120;24.732;2023-04-28T04:28:51;99650.38;;;10.50;55.30
8416;BME280;4245;42.120;24.732;2023-04-28T04:31:18;99654.19;;;10.45;55.00
8416;BME280;4245;42.120;24.732;2023-04-28T04:33:48;99657.56;;;10.48;54.88
8416;BME280;4245;42.120;24.732;2023-04-28T04:36:14;99655.28;;;10.56;54.47
8416;BME280;4245;42.120;24.732;2023-04-28T04:38:41;99659.59;;;10.71;54.13
8416;BME280;4245;42.120;24.732;2023-04-28T04:41:08;99661.09;;;10.75;54.10
8416;BME280;4245;42.120;24.732;2023-04-28T04:43:35;99670.31;;;10.83;53.07
8416;BME280;4245;42.120;24.732;2023-04-28T04:46:02;99655.16;;;10.98;52.40
8416;BME280;4245;42.120;24.732;2023-04-28T04:48:29;99670.00;;;11.15;51.25
8416;BME280;4245;42.120;24.732;2023-04-28T04:50:57;99669.81;;;11.18;50.82
8416;BME280;4245;42.120;24.732;2023-04-28T04:53:24;99668.88;;;11.31;50.13
8416;BME280;4245;42.120;24.732;2023-04-28T04:55:50;99676.09;;;11.29;50.68
8416;BME280;4245;42.120;24.732;2023-04-28T04:58:17;99684.38;;;11.25;50.12
8416;BME280;4245;42.120;24.732;2023-04-28T05:00:44;99684.94;;;11.43;50.03
8416;BME280;4245;42.120;24.732;2023-04-28T05:03:11;99689.44;;;11.42;50.21
8416;BME280;4245;42.120;24.732;2023-04-28T05:05:38;99696.28;;;11.59;49.85
8416;BME280;4245;42.120;24.732;2023-04-28T05:08:07;99702.84;;;11.53;50.20
8416;BME280;4245;42.120;24.732;2023-04-28T05:10:33;99701.59;;;11.59;50.24
8416;BME280;4245;42.120;24.732;2023-04-28T05:13:00;99706.78;;;11.87;49.86
8416;BME280;4245;42.120;24.732;2023-04-28T05:15:28;99698.28;;;11.95;49.14
8416;BME280;4245;42.120;24.732;2023-04-28T05:17:55;99712.22;;;12.24;47.85
8416;BME280;4245;42.120;24.732;2023-04-28T05:20:22;99710.00;;;12.05;48.31
8416;BME280;4245;42.120;24.732;2023-04-28T05:22:48;99700.94;;;12.07;47.50
8416;BME280;4245;42.120;24.732;2023-04-28T05:25:17;99708.19;;;12.18;47.90
8416;BME280;4245;42.120;24.732;2023-04-28T05:27:43;99701.31;;;12.39;47.55
8416;BME280;4245;42.120;24.732;2023-04-28T05:30:11;99708.91;;;12.33;46.81
8416;BME280;4245;42.120;24.732;2023-04-28T05:32:37;99720.09;;;12.38;46.57
8416;BME280;4245;42.120;24.732;2023-04-28T05:35:05;99714.31;;;12.56;46.10
8416;BME280;4245;42.120;24.732;2023-04-28T05:37:32;99714.47;;;12.79;45.73
8416;BME280;4245;42.120;24.732;2023-04-28T05:39:58;99715.09;;;13.19;46.17
8416;BME280;4245;42.120;24.732;2023-04-28T05:42:26;99726.56;;;13.32;45.51
8416;BME280;4245;42.120;24.732;2023-04-28T05:44:53;99715.78;;;13.33;46.38
8416;BME280;4245;42.120;24.732;2023-04-28T05:47:20;99721.53;;;13.40;44.95
8416;BME280;4245;42.120;24.732;2023-04-28T05:49:47;99728.59;;;13.87;45.48
8416;BME280;4245;42.120;24.732;2023-04-28T05:52:14;99725.19;;;13.85;44.73
8416;BME280;4245;42.120;24.732;2023-04-28T05:54:41;99730.59;;;14.07;46.82
8416;BME280;4245;42.120;24.732;2023-04-28T05:57:07;99729.91;;;14.27;45.23
8416;BME280;4245;42.120;24.732;2023-04-28T05:59:35;99734.84;;;14.10;44.83
8416;BME280;4245;42.120;24.732;2023-04-28T06:02:02;99739.75;;;14.27;44.67
8416;BME280;4245;42.120;24.732;2023-04-28T06:04:29;99744.03;;;14.41;42.92
8416;BME280;4245;42.120;24.732;2023-04-28T06:06:56;99740.19;;;14.10;42.55
8416;BME280;4245;42.120;24.732;2023-04-28T06:09:23;99735.13;;;14.18;42.07
8416;BME280;4245;42.120;24.732;2023-04-28T06:11:50;99733.78;;;14.23;43.65
8416;BME280;4245;42.120;24.732;2023-04-28T06:14:17;99753.13;;;14.38;41.52
8416;BME280;4245;42.120;24.732;2023-04-28T06:16:45;99741.38;;;14.52;41.61
8416;BME280;4245;42.120;24.732;2023-04-28T06:19:12;99749.50;;;14.72;39.77
8416;BME280;4245;42.120;24.732;2023-04-28T06:21:39;99745.84;;;14.62;40.05
8416;BME280;4245;42.120;24.732;2023-04-28T06:24:06;99743.44;;;14.37;40.09
8416;BME280;4245;42.120;24.732;2023-04-28T06:26:35;99749.41;;;14.52;41.79
8416;BME280;4245;42.120;24.732;2023-04-28T06:29:02;99740.66;;;14.61;41.36
8416;BME280;4245;42.120;24.732;2023-04-28T06:31:29;99738.31;;;14.78;40.70
8416;BME280;4245;42.120;24.732;2023-04-28T06:33:57;99750.69;;;15.13;41.85
8416;BME280;4245;42.120;24.732;2023-04-28T06:36:24;99740.50;;;14.96;40.68
8416;BME280;4245;42.120;24.732;2023-04-28T06:38:51;99747.63;;;15.17;40.85
8416;BME280;4245;42.120;24.732;2023-04-28T06:41:20;99757.09;;;15.21;39.34
8416;BME280;4245;42.120;24.732;2023-04-28T06:43:47;99746.47;;;14.55;40.56
8416;BME280;4245;42.120;24.732;2023-04-28T06:46:15;99746.81;;;14.72;47.74
8416;BME280;4245;42.120;24.732;2023-04-28T06:48:42;99747.63;;;15.06;44.23
8416;BME280;4245;42.120;24.732;2023-04-28T06:51:10;99751.06;;;15.62;39.51
8416;BME280;4245;42.120;24.732;2023-04-28T06:53:36;99745.47;;;15.00;40.38
8416;BME280;4245;42.120;24.732;2023-04-28T06:56:04;99749.94;;;15.11;40.62
8416;BME280;4245;42.120;24.732;2023-04-28T06:58:30;99748.38;;;15.62;39.39
8416;BME280;4245;42.120;24.732;2023-04-28T07:00:58;99746.56;;;15.63;41.61
8416;BME280;4245;42.120;24.732;2023-04-28T07:03:25;99745.69;;;15.62;40.63
8416;BME280;4245;42.120;24.732;2023-04-28T07:05:52;99763.38;;;15.54;39.06
8416;BME280;4245;42.120;24.732;2023-04-28T07:08:21;99749.13;;;15.42;45.01
8416;BME280;4245;42.120;24.732;2023-04-28T07:10:47;99745.91;;;16.12;38.92
8416;BME280;4245;42.120;24.732;2023-04-28T07:13:14;99740.06;;;16.48;37.59
8416;BME280;4245;42.120;24.732;2023-04-28T07:15:41;99744.84;;;16.75;38.38
8416;BME280;4245;42.120;24.732;2023-04-28T07:18:08;99758.75;;;16.90;36.51
8416;BME280;4245;42.120;24.732;2023-04-28T07:20:34;99744.13;;;16.22;36.98
8416;BME280;4245;42.120;24.732;2023-04-28T07:23:01;99750.97;;;16.26;38.63
8416;BME280;4245;42.120;24.732;2023-04-28T07:25:30;99746.97;;;16.72;40.98
8416;BME280;4245;42.120;24.732;2023-04-28T07:27:57;99745.38;;;17.59;35.70
8416;BME280;4245;42.120;24.732;2023-04-28T07:30:24;99752.00;;;17.93;35.67
8416;BME280;4245;42.120;24.732;2023-04-28T07:32:50;99749.41;;;17.44;34.12
8416;BME280;4245;42.120;24.732;2023-04-28T07:35:17;99744.78;;;16.96;35.58
8416;BME280;4245;42.120;24.732;2023-04-28T07:37:44;99744.56;;;17.09;40.45
8416;BME280;4245;42.120;24.732;2023-04-28T07:40:11;99744.09;;;17.82;34.61
8416;BME280;4245;42.120;24.732;2023-04-28T07:42:39;99740.44;;;17.64;34.39
8416;BME280;4245;42.120;24.732;2023-04-28T07:45:07;99742.69;;;17.59;34.96
8416;BME280;4245;42.120;24.732;2023-04-28T07:47:34;99739.94;;;17.39;34.66
8416;BME280;4245;42.120;24.732;2023-04-28T07:50:01;99730.13;;;17.00;35.80
8416;BME280;4245;42.120;24.732;2023-04-28T07:52:29;99740.34;;;17.25;36.55
8416;BME280;4245;42.120;24.732;2023-04-28T07:54:57;99731.66;;;17.81;35.71
8416;BME280;4245;42.120;24.732;2023-04-28T07:57:24;99725.09;;;18.22;34.56
8416;BME280;4245;42.120;24.732;2023-04-28T07:59:52;99724.31;;;18.58;34.19
8416;BME280;4245;42.120;24.732;2023-04-28T08:02:19;99729.44;;;18.33;33.38
8416;BME280;4245;42.120;24.732;2023-04-28T08:04:46;99732.19;;;18.70;34.27
8416;BME280;4245;42.120;24.732;2023-04-28T08:07:13;99728.06;;;19.02;33.54
8416;BME280;4245;42.120;24.732;2023-04-28T08:09:40;99721.53;;;19.50;31.83
8416;BME280;4245;42.120;24.732;2023-04-28T08:12:11;99717.38;;;19.73;30.89
8416;BME280;4245;42.120;24.732;2023-04-28T08:14:38;99713.19;;;19.96;31.24
8416;BME280;4245;42.120;24.732;2023-04-28T08:17:06;99721.81;;;20.26;31.18
8416;BME280;4245;42.120;24.732;2023-04-28T08:19:33;99718.25;;;20.43;31.07
8416;BME280;4245;42.120;24.732;2023-04-28T08:22:00;99716.34;;;20.61;31.04
8416;BME280;4245;42.120;24.732;2023-04-28T08:24:30;99721.25;;;21.00;29.76
8416;BME280;4245;42.120;24.732;2023-04-28T08:27:00;99725.22;;;20.79;29.04
8416;BME280;4245;42.120;24.732;2023-04-28T08:29:28;99713.44;;;20.89;29.63
8416;BME280;4245;42.120;24.732;2023-04-28T08:31:55;99722.97;;;21.59;28.62
8416;BME280;4245;42.120;24.732;2023-04-28T08:34:23;99718.06;;;21.12;27.97
8416;BME280;4245;42.120;24.732;2023-04-28T08:36:50;99717.16;;;21.46;29.67
8416;BME280;4245;42.120;24.732;2023-04-28T08:39:17;99712.09;;;21.43;29.64
8416;BME280;4245;42.120;24.732;2023-04-28T08:41:44;99709.75;;;21.64;28.53
8416;BME280;4245;42.120;24.732;2023-04-28T08:44:12;99704.81;;;21.35;29.33
8416;BME280;4245;42.120;24.732;2023-04-28T08:46:39;99703.88;;;21.68;29.89
8416;BME280;4245;42.120;24.732;2023-04-28T08:49:12;99697.53;;;22.49;28.21
8416;BME280;4245;42.120;24.732;2023-04-28T08:51:44;99701.13;;;22.96;27.78
8416;BME280;4245;42.120;24.732;2023-04-28T08:54:13;99697.66;;;23.42;28.13
8416;BME280;4245;42.120;24.732;2023-04-28T08:56:41;99697.66;;;23.87;26.01
8416;BME280;4245;42.120;24.732;2023-04-28T08:59:10;99700.00;;;23.53;26.67
8416;BME280;4245;42.120;24.732;2023-04-28T09:01:37;99698.00;;;22.69;27.25
8416;BME280;4245;42.120;24.732;2023-04-28T09:04:04;99691.59;;;22.53;28.89
8416;BME280;4245;42.120;24.732;2023-04-28T09:06:32;99691.03;;;22.82;28.79
8416;BME280;4245;42.120;24.732;2023-04-28T09:09:19;99689.97;;;22.91;26.96
8416;BME280;4245;42.120;24.732;2023-04-28T09:11:52;99699.03;;;21.22;28.45
8416;BME280;4245;42.120;24.732;2023-04-28T09:14:21;99681.72;;;21.57;28.16
8416;BME280;4245;42.120;24.732;2023-04-28T09:16:48;99693.03;;;21.85;28.66
8416;BME280;4245;42.120;24.732;2023-04-28T09:19:16;99693.44;;;22.61;27.61
8416;BME280;4245;42.120;24.732;2023-04-28T09:21:47;99688.19;;;23.37;26.77
8416;BME280;4245;42.120;24.732;2023-04-28T09:24:29;99683.59;;;24.44;25.47
8416;BME280;4245;42.120;24.732;2023-04-28T09:26:57;99676.75;;;24.77;25.11
8416;BME280;4245;42.120;24.732;2023-04-28T09:29:24;99676.47;;;24.43;26.40
8416;BME280;4245;42.120;24.732;2023-04-28T09:31:51;99677.88;;;24.39;26.00
8416;BME280;4245;42.120;24.732;2023-04-28T09:34:18;99673.59;;;24.44;26.10
8416;BME280;4245;42.120;24.732;2023-04-28T09:36:45;99673.66;;;24.65;25.97
8416;BME280;4245;42.120;24.732;2023-04-28T09:39:12;99674.38;;;25.03;25.93
8416;BME280;4245;42.120;24.732;2023-04-28T09:41:41;99673.16;;;25.42;25.75
8416;BME280;4245;42.120;24.732;2023-04-28T09:44:13;99672.09;;;26.28;24.63
8416;BME280;4245;42.120;24.732;2023-04-28T09:46:40;99675.09;;;26.74;23.92
8416;BME280;4245;42.120;24.732;2023-04-28T09:49:07;99674.38;;;26.93;23.03
8416;BME280;4245;42.120;24.732;2023-04-28T09:51:34;99670.56;;;27.42;23.06
8416;BME280;4245;42.120;24.732;2023-04-28T09:54:01;99666.53;;;26.83;22.54
8416;BME280;4245;42.120;24.732;2023-04-28T09:56:30;99666.84;;;26.26;23.17
8416;BME280;4245;42.120;24.732;2023-04-28T09:59:00;99662.91;;;25.80;22.74
8416;BME280;4245;42.120;24.732;2023-04-28T10:01:31;99647.06;;;24.61;24.83
8416;BME280;4245;42.120;24.732;2023-04-28T10:03:59;99654.75;;;23.22;25.82
8416;BME280;4245;42.120;24.732;2023-04-28T10:06:27;99637.16;;;23.41;26.17
8416;BME280;4245;42.120;24.732;2023-04-28T10:08:55;99642.00;;;23.54;25.95
8416;BME280;4245;42.120;24.732;2023-04-28T10:11:23;99641.19;;;22.91;26.05
8416;BME280;4245;42.120;24.732;2023-04-28T10:13:52;99637.38;;;24.14;25.92
8416;BME280;4245;42.120;24.732;2023-04-28T10:16:21;99634.66;;;25.02;25.37
8416;BME280;4245;42.120;24.732;2023-04-28T10:18:48;99634.50;;;26.17;24.22
8416;BME280;4245;42.120;24.732;2023-04-28T10:21:17;99629.59;;;26.06;24.17
8416;BME280;4245;42.120;24.732;2023-04-28T10:24:08;99622.91;;;25.38;25.00
8416;BME280;4245;42.120;24.732;2023-04-28T10:27:04;99626.28;;;25.40;25.10
8416;BME280;4245;42.120;24.732;2023-04-28T10:29:33;99617.47;;;26.08;24.40
8416;BME280;4245;42.120;24.732;2023-04-28T10:32:20;99629.28;;;26.50;23.97
8416;BME280;4245;42.120;24.732;2023-04-28T10:34:48;99618.59;;;26.20;24.09
8416;BME280;4245;42.120;24.732;2023-04-28T10:37:15;99613.34;;;26.53;23.52
8416;BME280;4245;42.120;24.732;2023-04-28T10:42:53;99619.88;;;24.90;23.78
8416;BME280;4245;42.120;24.732;2023-04-28T10:45:58;99617.75;;;26.20;24.31
8416;BME280;4245;42.120;24.732;2023-04-28T10:48:55;99612.06;;;27.64;24.43
8416;BME280;4245;42.120;24.732;2023-04-28T10:51:29;99619.72;;;28.66;20.94
8416;BME280;4245;42.120;24.732;2023-04-28T10:54:16;99616.72;;;26.55;21.37
8416;BME280;4245;42.120;24.732;2023-04-28T10:57:17;99604.66;;;25.74;22.62
8416;BME280;4245;42.120;24.732;2023-04-28T10:59:44;99603.06;;;25.86;22.87
8416;BME280;4245;42.120;24.732;2023-04-28T11:02:39;99608.81;;;27.21;21.89
8416;BME280;4245;42.120;24.732;2023-04-28T11:05:19;99600.09;;;27.85;21.50
8416;BME280;4245;42.120;24.732;2023-04-28T11:11:15;99602.38;;;28.21;22.04
8416;BME280;4245;42.120;24.732;2023-04-28T11:13:42;99604.34;;;28.78;21.21
8416;BME280;4245;42.120;24.732;2023-04-28T11:16:13;99598.47;;;29.12;20.09
8416;BME280;4245;42.120;24.732;2023-04-28T11:18:48;99600.31;;;28.16;20.08
8416;BME280;4245;42.120;24.732;2023-04-28T11:21:18;99600.31;;;27.83;20.69
8416;BME280;4245;42.120;24.732;2023-04-28T11:23:45;99602.72;;;29.08;20.31
8416;BME280;4245;42.120;24.732;2023-04-28T11:26:12;99601.22;;;29.50;19.73
8416;BME280;4245;42.120;24.732;2023-04-28T11:28:47;99597.50;;;29.94;19.80
8416;BME280;4245;42.120;24.732;2023-04-28T11:31:14;99599.09;;;30.45;19.52
8416;BME280;4245;42.120;24.732;2023-04-28T11:33:53;99585.84;;;29.11;20.41
8416;BME280;4245;42.120;24.732;2023-04-28T11:36:27;99582.38;;;29.60;19.74
8416;BME280;4245;42.120;24.732;2023-04-28T11:38:55;99594.44;;;28.83;19.73
8416;BME280;4245;42.120;24.732;2023-04-28T11:41:22;99586.66;;;26.35;21.03
8416;BME280;4245;42.120;24.732;2023-04-28T11:43:49;99576.94;;;24.86;22.59
8416;BME280;4245;42.120;24.732;2023-04-28T11:46:17;99569.47;;;25.09;22.52
8416;BME280;4245;42.120;24.732;2023-04-28T11:48:44;99569.94;;;25.13;23.12
8416;BME280;4245;42.120;24.732;2023-04-28T11:51:29;99570.31;;;25.52;23.56
8416;BME280;4245;42.120;24.732;2023-04-28T11:53:57;99569.88;;;26.79;22.53
8416;BME280;4245;42.120;24.732;2023-04-28T11:56:23;99567.44;;;26.91;21.51
8416;BME280;4245;42.120;24.732;2023-04-28T11:59:01;99558.50;;;27.43;21.28
8416;BME280;4245;42.120;24.732;2023-04-28T12:01:29;99560.72;;;28.45;20.81
8416;BME280;4245;42.120;24.732;2023-04-28T12:03:55;99554.00;;;28.92;20.31
8416;BME280;4245;42.120;24.732;2023-04-28T12:06:23;99550.03;;;28.81;21.12
8416;BME280;4245;42.120;24.732;2023-04-28T12:08:51;99551.19;;;29.36;19.95
8416;BME280;4245;42.120;24.732;2023-04-28T12:11:18;99548.19;;;29.69;19.47
8416;BME280;4245;42.120;24.732;2023-04-28T12:14:06;99545.13;;;29.28;19.73
8416;BME280;4245;42.120;24.732;2023-04-28T12:16:41;99541.25;;;28.73;20.14
8416;BME280;4245;42.120;24.732;2023-04-28T12:19:10;99532.81;;;28.23;20.16
8416;BME280;4245;42.120;24.732;2023-04-28T12:21:38;99530.19;;;28.55;20.78
8416;BME280;4245;42.120;24.732;2023-04-28T12:24:17;99526.97;;;28.71;19.45
8416;BME280;4245;42.120;24.732;2023-04-28T12:26:45;99522.94;;;28.09;19.69
8416;BME280;4245;42.120;24.732;2023-04-28T12:29:34;99520.31;;;27.50;20.63
8416;BME280;4245;42.120;24.732;2023-04-28T12:32:01;99521.13;;;27.83;20.55
8416;BME280;4245;42.120;24.732;2023-04-28T12:34:28;99517.72;;;28.21;20.37
8416;BME280;4245;42.120;24.732;2023-04-28T12:36:55;99509.94;;;28.75;19.77
8416;BME280;4245;42.120;24.732;2023-04-28T12:39:23;99510.50;;;29.47;19.15
8416;BME280;4245;42.120;24.732;2023-04-28T12:41:51;99503.91;;;29.23;18.97
8416;BME280;4245;42.120;24.732;2023-04-28T12:44:18;99499.16;;;28.80;19.33
8416;BME280;4245;42.120;24.732;2023-04-28T12:46:45;99500.16;;;29.17;19.06
8416;BME280;4245;42.120;24.732;2023-04-28T12:49:12;99496.00;;;29.64;19.28
8416;BME280;4245;42.120;24.732;2023-04-28T12:51:39;99495.03;;;29.27;20.04
8416;BME280;4245;42.120;24.732;2023-04-28T12:54:07;99490.97;;;29.05;20.71
8416;BME280;4245;42.120;24.732;2023-04-28T12:56:36;99496.25;;;29.81;20.65
8416;BME280;4245;42.120;24.732;2023-04-28T12:59:03;99488.06;;;30.36;20.15
8416;BME280;4245;42.120;24.732;2023-04-28T13:01:30;99486.91;;;30.91;19.36
8416;BME280;4245;42.120;24.732;2023-04-28T13:03:57;99482.81;;;30.52;19.57
8416;BME280;4245;42.120;24.732;2023-04-28T13:06:25;99480.47;;;30.19;20.01
8416;BME280;4245;42.120;24.732;2023-04-28T13:08:52;99474.53;;;30.04;20.49
8416;BME280;4245;42.120;24.732;2023-04-28T13:11:19;99467.75;;;30.07;20.72
8416;BME280;4245;42.120;24.732;2023-04-28T13:13:48;99468.88;;;30.54;20.09
8416;BME280;4245;42.120;24.732;2023-04-28T13:16:15;99466.31;;;30.22;19.90
8416;BME280;4245;42.120;24.732;2023-04-28T13:18:42;99466.13;;;29.81;20.45
8416;BME280;4245;42.120;24.732;2023-04-28T13:21:09;99459.72;;;29.87;20.33
8416;BME280;4245;42.120;24.732;2023-04-28T13:23:36;99458.13;;;29.79;20.49
8416;BME280;4245;42.120;24.732;2023-04-28T13:26:02;99459.47;;;29.95;20.32